Latest Coastal Weather Observations for Redland (Alexandra Hills)

IDQ60701

Issued at 12:52 am EST Friday 5 March 2021 (issued every 10 minutes, with the page automatically refreshed every 10 minutes)

About coastal observations | Map of coastal stations | Coastal observations for QLD | Marine services | Other Formats
Station Details ID: 140007 Name: REDLAND (ALEXANDRA HILLS) Lat: -27.54 Lon: 153.24 Height: 50.53 m
Data from the previous 72 hours. | See also: Recent months at Redland (Alexandra Hills)
Date/Time
EST
Wind Sea
Height
m
Swell Vis
km
Cloud Weather Temp
°C
Press
MSL
hPa
Rain since
9am
mm
Dir  Spd
kts
Gust
kts
Height
m
Period
s
Dir
05/12:30am SSW 2 3 - - - - - - - 18.4 - 0.0
05/12:00am SSW 3 4 - - - - - - - 18.1 - 0.0
 
Date/Time
EST
Wind Sea
Height
m
Swell Vis
km
Cloud Weather Temp
°C
Press
MSL
hPa
Rain since
9am
mm
Dir  Spd
kts
Gust
kts
Height
m
Period
s
Dir
04/11:30pm SSW 3 3 - - - - - - - 18.4 - 0.0
04/11:00pm SSW 3 4 - - - - - - - 18.2 - 0.0
04/10:30pm SSE 1 2 - - - - - - - 17.9 - 0.0
04/10:00pm CALM 0 0 - - - - - - - 18.2 - 0.0
04/09:30pm CALM 0 0 - - - - - - - 18.7 - 0.0
04/09:00pm CALM 0 0 - - - - - - - 18.9 - 0.0
04/08:30pm SSE 2 3 - - - - - - - 18.8 - 0.0
04/08:00pm SSE 1 2 - - - - - - - 19.8 - 0.0
04/07:30pm CALM 0 2 - - - - - - - 20.3 - 0.0
04/07:00pm SE 2 5 - - - - - - - 21.3 - 0.0
04/06:30pm SE 2 4 - - - - - - - 22.2 - 0.0
04/06:00pm SE 4 9 - - - - - - - 23.1 - 0.0
04/05:30pm SE 5 11 - - - - - - - 23.7 - 0.0
04/05:00pm SE 6 11 - - - - - - - 24.1 - 0.0
04/04:30pm ESE 5 12 - - - - - - - 25.0 - 0.0
04/04:00pm SE 6 14 - - - - - - - 24.3 - 0.0
04/03:30pm SE 7 12 - - - - - - - 24.8 - 0.0
04/03:00pm SSE 7 12 - - - - - - - 25.0 - 0.0
04/02:30pm SE 8 16 - - - - - - - 24.4 - 0.0
04/02:00pm SE 8 14 - - - - - - - 25.0 - 0.0
04/01:30pm SSE 7 12 - - - - - - - 24.5 - 0.0
04/01:00pm SE 6 12 - - - - - - - 25.0 - 0.0
04/12:30pm ESE 8 15 - - - - - - - 24.1 - 0.0
04/12:00pm SE 7 16 - - - - - - - 24.1 - 0.0
04/11:30am SSE 9 16 - - - - - - - 23.6 - 0.0
04/11:00am SSE 7 14 - - - - - - - 22.2 - 0.0
04/10:30am SSE 10 17 - - - - - - - 20.9 - 0.0
04/10:00am SSE 8 14 - - - - - - - 21.9 - 0.0
04/09:30am SSE 5 10 - - - - - - - 21.1 - 0.0
04/09:00am SSE 6 11 - - - - - - - 20.9 - 15.8
04/08:30am SSE 3 6 - - - - - - - 20.2 - 15.8
04/08:00am SSE 4 8 - - - - - - - 19.6 - 15.8
04/07:30am S 4 8 - - - - - - - 19.5 - 15.8
04/07:00am S 5 8 - - - - - - - 19.3 - 15.4
04/06:30am S 5 7 - - - - - - - 19.1 - 15.2
04/06:00am S 6 8 - - - - - - Rain 19.0 - 13.4
04/05:30am S 6 9 - - - - - - - 19.4 - 9.2
04/05:00am S 6 11 - - - - - - - 19.6 - 9.2
04/04:30am SSE 5 9 - - - - - - - 19.7 - 9.2
04/04:00am SSE 5 10 - - - - - - - 19.9 - 9.0
04/03:30am SSE 6 10 - - - - - - - 19.9 - 9.0
04/03:00am S 5 9 - - - - - - - 20.0 - 9.0
04/02:30am S 5 9 - - - - - - - 20.2 - 9.0
04/02:00am S 4 6 - - - - - - - 20.2 - 9.0
04/01:30am S 5 8 - - - - - - - 20.2 - 9.0
04/01:00am S 3 5 - - - - - - - 20.2 - 9.0
04/12:30am S 3 4 - - - - - - - 20.1 - 9.0
04/12:00am SSE 2 4 - - - - - - - 20.4 - 9.0
 
Date/Time
EST
Wind Sea
Height
m
Swell Vis
km
Cloud Weather Temp
°C
Press
MSL
hPa
Rain since
9am
mm
Dir  Spd
kts
Gust
kts
Height
m
Period
s
Dir
03/11:30pm SSW 5 7 - - - - - - - 20.3 - 9.0
03/11:00pm SSE 2 3 - - - - - - - 20.7 - 9.0
03/10:30pm SSE 4 6 - - - - - - - 20.8 - 8.2
03/10:00pm SSE 4 7 - - - - - - - 22.4 - 6.4
03/09:30pm E 2 5 - - - - - - - 23.6 - 6.4
03/09:00pm ESE 5 10 - - - - - - - 23.7 - 6.4
03/08:30pm ESE 4 10 - - - - - - - 23.5 - 6.4
03/08:00pm ESE 5 10 - - - - - - - 23.4 - 6.4
03/07:30pm ESE 4 9 - - - - - - - 23.5 - 6.4
03/07:00pm ESE 4 8 - - - - - - - 23.6 - 6.4
03/06:30pm ESE 5 10 - - - - - - - 23.3 - 6.4
03/06:00pm ESE 5 10 - - - - - - - 23.9 - 6.4
03/05:30pm ESE 6 11 - - - - - - - 24.0 - 6.4
03/05:00pm ESE 5 10 - - - - - - - 24.2 - 6.4
03/04:30pm ESE 8 18 - - - - - - - 24.4 - 6.4
03/04:00pm ESE 8 13 - - - - - - - 24.8 - 6.4
03/03:30pm SE 8 15 - - - - - - - 24.6 - 6.4
03/03:00pm ESE 8 15 - - - - - - - 24.7 - 6.4
03/02:30pm SE 7 15 - - - - - - - 24.7 - 6.4
03/02:00pm ESE 6 13 - - - - - - - 25.1 - 6.4
03/01:30pm ESE 7 17 - - - - - - - 25.1 - 6.4
03/01:00pm ESE 8 15 - - - - - - - 24.7 - 6.4
03/12:30pm ESE 6 11 - - - - - - - 25.1 - 6.4
03/12:00pm SE 6 10 - - - - - - - 22.8 - 6.4
03/11:30am SSE 6 11 - - - - - - - 22.8 - 6.4
03/11:00am SSE 7 11 - - - - - - - 21.9 - 6.4
03/10:30am SSE 6 10 - - - - - - - 21.9 - 6.4
03/10:00am SE 8 15 - - - - - - - 21.5 - 5.0
03/09:30am SE 4 8 - - - - - - - 23.8 - 0.0
03/09:00am SE 5 9 - - - - - - Rain 23.0 - 4.0
03/08:30am SE 5 10 - - - - - - - 23.3 - 3.8
03/08:00am SSE 4 7 - - - - - - - 22.7 - 3.8
03/07:30am SSE 4 7 - - - - - - - 22.4 - 3.8
03/07:00am SE 3 5 - - - - - - - 22.1 - 3.8
03/06:30am E 2 5 - - - - - - - 21.6 - 3.8
03/06:00am E 4 7 - - - - - - Rain 21.8 - 2.8
03/05:30am ESE 4 8 - - - - - - - 21.5 - 1.6
03/05:00am ESE 3 6 - - - - - - - 21.7 - 0.6
03/04:30am E 3 5 - - - - - - - 21.8 - 0.6
03/04:00am ENE 3 8 - - - - - - - 22.2 - 0.6
03/03:30am E 4 9 - - - - - - - 22.1 - 0.6
03/03:00am E 2 5 - - - - - - - 22.8 - 0.6
03/02:30am ENE 6 10 - - - - - - - 22.3 - 0.6
03/02:00am E 6 12 - - - - - - - 22.2 - 0.6
03/01:30am ENE 6 11 - - - - - - - 22.6 - 0.6
03/01:00am SE 8 13 - - - - - - - 24.6 - 0.6
03/12:30am SE 6 13 - - - - - - - 24.1 - 0.6
03/12:00am SE 6 10 - - - - - - Rain 24.0 - 0.6
 
Date/Time
EST
Wind Sea
Height
m
Swell Vis
km
Cloud Weather Temp
°C
Press
MSL
hPa
Rain since
9am
mm
Dir  Spd
kts
Gust
kts
Height
m
Period
s
Dir
02/11:30pm SE 8 18 - - - - - - - 24.8 - 0.4
02/11:00pm SSE 8 14 - - - - - - - 24.9 - 0.4
02/10:30pm SSE 7 13 - - - - - - - 24.9 - 0.4
02/10:00pm SSE 7 13 - - - - - - - 24.9 - 0.4
02/09:30pm SSE 8 14 - - - - - - - 25.0 - 0.4
02/09:00pm SSE 8 15 - - - - - - - 25.1 - 0.4
02/08:30pm SSE 6 11 - - - - - - - 25.2 - 0.4
02/08:00pm SSE 8 14 - - - - - - - 25.3 - 0.4
02/07:30pm SE 6 9 - - - - - - - 25.3 - 0.4
02/07:00pm ESE 5 10 - - - - - - - 25.1 - 0.4
02/06:30pm SSE 2 5 - - - - - - - 24.8 - 0.4
02/06:00pm S 3 4 - - - - - - Recent precip. 25.3 - 0.2
02/05:30pm SE 5 9 - - - - - - - 26.9 - 0.0
02/05:00pm NE 6 9 - - - - - - - 26.9 - 0.0
02/04:30pm NE 7 11 - - - - - - - 27.4 - 0.0
02/04:00pm NE 9 14 - - - - - - - 27.9 - 0.0
02/03:30pm NE 9 13 - - - - - - - 28.0 - 0.0
02/03:00pm NNE 7 11 - - - - - - - 28.8 - 0.0
02/02:30pm NNE 8 11 - - - - - - - 28.8 - 0.0
02/02:00pm NE 8 11 - - - - - - - 29.2 - 0.0
02/01:30pm NE 9 12 - - - - - - - 28.4 - 0.0
02/01:00pm NNE 8 13 - - - - - - - 29.0 - 0.0
02/12:30pm NNE 7 10 - - - - - - - 28.6 - 0.0
02/12:00pm NNE 7 11 - - - - - - - 29.0 - 0.0
02/11:30am NNE 6 11 - - - - - - - 29.4 - 0.0
02/11:00am WNW 2 6 - - - - - - - 29.7 - 0.0
02/10:30am WNW 4 8 - - - - - - - 29.1 - 0.0
02/10:00am WNW 3 5 - - - - - - - 28.3 - 0.0
02/09:30am NNW 3 6 - - - - - - - 27.7 - 0.0
02/09:00am W 3 6 - - - - - - - 27.4 - 0.0
02/08:30am W 2 4 - - - - - - - 26.5 - 0.0
02/08:00am WSW 3 5 - - - - - - - 25.2 - 0.0
02/07:30am WSW 4 7 - - - - - - - 24.0 - 0.0
02/07:00am W 3 5 - - - - - - - 22.9 - 0.0
02/06:30am WSW 3 4 - - - - - - - 21.8 - 0.0
02/06:00am WSW 2 3 - - - - - - - 21.5 - 0.0
02/05:30am WSW 3 4 - - - - - - - 21.6 - 0.0
02/05:00am WSW 2 3 - - - - - - - 21.8 - 0.0
02/04:30am CALM 0 0 - - - - - - - 21.8 - 0.0
02/04:00am WSW 3 3 - - - - - - - 22.2 - 0.0
02/03:30am CALM 0 0 - - - - - - - 22.2 - 0.0
02/03:00am WSW 2 3 - - - - - - - 23.0 - 0.0
02/02:30am W 2 3 - - - - - - - 23.4 - 0.0
02/02:00am W 2 4 - - - - - - - 23.2 - 0.0
02/01:30am CALM 0 0 - - - - - - - 23.3 - 0.0
02/01:00am CALM 0 0 - - - - - - - 23.7 - 0.0

Other formats

Comma delimited format used in spreadsheet applications
http://www.bom.gov.au/fwo/IDQ60701/IDQ60701.94561.axf

JavaScript Object Notation format (JSON) in row-major order
http://www.bom.gov.au/fwo/IDQ60701/IDQ60701.94561.json

Data quality

Most of these data are generated automatically and are frequently updated. Quality checks on data are not normally performed. It is possible for incorrect values to appear. Refer to information at About Latest Weather Observations and please check the disclaimer before using these data.